createdAt,value
2018-05-02T00:01:33.994Z,60.45
2018-05-02T00:04:38.316Z,59.98
2018-05-02T00:07:41.724Z,59.82
2018-05-02T00:10:44.984Z,59.69
2018-05-02T00:13:48.299Z,60.16
2018-05-02T00:16:53.567Z,60.31
2018-05-02T00:19:56.844Z,60.22
2018-05-02T00:23:00.144Z,61.23
2018-05-02T00:26:03.439Z,63.64
2018-05-02T00:29:07.691Z,64.40
2018-05-02T00:32:10.853Z,64.69
2018-05-02T00:35:14.192Z,64.66
2018-05-02T00:38:17.825Z,63.98
2018-05-02T00:41:22.051Z,63.46
2018-05-02T00:44:25.321Z,62.31
2018-05-02T00:47:28.580Z,61.34
2018-05-02T00:50:31.874Z,61.53
2018-05-02T00:53:35.263Z,60.89
2018-05-02T00:56:38.504Z,61.97
2018-05-02T00:59:41.763Z,61.50
2018-05-02T01:02:45.224Z,61.96
2018-05-02T01:05:48.568Z,63.34
2018-05-02T01:08:53.207Z,63.11
2018-05-02T01:11:56.591Z,62.60
2018-05-02T01:15:00.335Z,64.11
2018-05-02T01:18:03.508Z,63.28
2018-05-02T01:21:06.835Z,63.27
2018-05-02T01:24:10.145Z,62.80
2018-05-02T01:27:13.492Z,63.41
2018-05-02T01:30:17.782Z,63.16
2018-05-02T01:33:22.079Z,63.36
2018-05-02T01:36:25.304Z,62.71
2018-05-02T01:39:29.656Z,62.20
2018-05-02T01:42:32.951Z,62.18
2018-05-02T01:45:36.247Z,61.86
2018-05-02T01:48:44.342Z,61.38
2018-05-02T01:51:47.655Z,61.04
2018-05-02T01:54:51.947Z,60.65
2018-05-02T01:57:55.175Z,60.66
2018-05-02T02:00:58.467Z,60.56
2018-05-02T02:04:01.767Z,60.42
2018-05-02T02:07:05.159Z,60.45
2018-05-02T02:10:08.470Z,61.11
2018-05-02T02:13:11.768Z,60.83
2018-05-02T02:16:15.078Z,61.59
2018-05-02T02:19:18.353Z,61.72
2018-05-02T02:22:22.069Z,62.21
2018-05-02T02:25:25.355Z,62.48
2018-05-02T02:28:29.079Z,62.94
2018-05-02T02:31:33.083Z,62.33
2018-05-02T02:34:36.485Z,61.72
2018-05-02T02:37:39.775Z,60.77
2018-05-02T02:40:43.054Z,60.58
2018-05-02T02:43:46.369Z,60.64
2018-05-02T02:46:49.684Z,60.41
2018-05-02T02:49:53.087Z,60.00
2018-05-02T02:52:56.369Z,60.27
2018-05-02T02:55:59.686Z,60.00
2018-05-02T02:59:03.712Z,59.51
2018-05-02T03:02:06.931Z,59.18
2018-05-02T03:05:10.182Z,59.41
2018-05-02T03:08:13.539Z,59.98
2018-05-02T03:11:16.789Z,59.28
2018-05-02T03:14:20.015Z,59.55
2018-05-02T03:17:23.202Z,59.12
2018-05-02T03:20:26.465Z,58.94
2018-05-02T03:23:31.258Z,59.15
2018-05-02T03:26:34.483Z,59.90
2018-05-02T03:29:37.783Z,59.29
2018-05-02T03:32:41.075Z,60.44
2018-05-02T03:35:44.387Z,61.00
2018-05-02T03:38:47.615Z,62.20
2018-05-02T03:41:50.877Z,63.29
2018-05-02T03:44:54.180Z,64.84
2018-05-02T03:47:57.878Z,66.47
2018-05-02T03:51:01.181Z,67.57
2018-05-02T03:54:04.584Z,67.70
2018-05-02T03:57:08.901Z,67.95
2018-05-02T04:00:23.498Z,67.91
2018-05-02T04:03:38.209Z,67.85
2018-05-02T04:06:50.376Z,67.39
2018-05-02T04:09:53.627Z,67.90
2018-05-02T04:12:57.820Z,68.12
2018-05-02T04:16:01.097Z,67.87
2018-05-02T04:19:04.305Z,66.79
2018-05-02T04:22:07.541Z,67.12
2018-05-02T04:25:10.819Z,67.43
2018-05-02T04:28:14.048Z,66.63
2018-05-02T04:31:17.404Z,66.53
2018-05-02T04:34:20.556Z,66.05
2018-05-02T04:37:23.816Z,66.17
2018-05-02T04:40:27.071Z,65.92
2018-05-02T04:43:30.442Z,65.75
2018-05-02T04:46:34.543Z,66.56
2018-05-02T04:49:37.888Z,65.89
2018-05-02T04:52:41.241Z,66.30
2018-05-02T04:55:44.573Z,65.53
2018-05-02T04:58:47.926Z,65.77
2018-05-02T05:01:51.225Z,64.89
2018-05-02T05:04:54.528Z,64.69
2018-05-02T05:07:58.851Z,64.04
2018-05-02T05:11:04.311Z,64.81
2018-05-02T05:14:07.587Z,64.17
2018-05-02T05:17:10.883Z,64.03
2018-05-02T05:20:14.223Z,63.95
2018-05-02T05:23:17.483Z,63.76
2018-05-02T05:26:20.651Z,63.63
2018-05-02T05:29:23.978Z,63.52
2018-05-02T05:32:27.275Z,64.63
2018-05-02T05:35:31.297Z,64.44
2018-05-02T05:38:34.580Z,63.49
2018-05-02T05:41:37.887Z,63.65
2018-05-02T05:44:41.171Z,63.65
2018-05-02T05:47:44.415Z,63.01
2018-05-02T05:50:47.681Z,62.75
2018-05-02T05:53:51.067Z,63.16
2018-05-02T05:56:54.359Z,62.14
2018-05-02T05:59:57.812Z,62.23
2018-05-02T06:03:00.963Z,61.97
2018-05-02T06:06:04.251Z,61.44
2018-05-02T06:09:07.675Z,62.16
2018-05-02T06:12:12.000Z,62.14
2018-05-02T06:15:15.226Z,61.90
2018-05-02T06:18:18.414Z,61.59
2018-05-02T06:21:21.603Z,61.41
2018-05-02T06:24:24.781Z,62.03
2018-05-02T06:27:28.044Z,60.68
2018-05-02T06:30:31.359Z,60.82
2018-05-02T06:33:34.647Z,59.86
2018-05-02T06:36:38.530Z,58.75
2018-05-02T06:39:41.775Z,58.72
2018-05-02T06:42:45.059Z,58.57
2018-05-02T06:45:49.384Z,59.33
2018-05-02T06:48:52.692Z,58.75
2018-05-02T06:51:56.067Z,59.06
2018-05-02T06:54:59.319Z,58.09
2018-05-02T06:58:02.469Z,58.06
2018-05-02T07:01:05.768Z,57.58
2018-05-02T07:04:09.667Z,57.09
2018-05-02T07:07:12.997Z,56.77
2018-05-02T07:10:16.312Z,59.41
2018-05-02T07:13:19.589Z,59.45
2018-05-02T07:16:22.877Z,60.92
2018-05-02T07:19:26.092Z,61.09
2018-05-02T07:22:29.336Z,61.44
2018-05-02T07:25:32.507Z,60.96
2018-05-02T07:28:35.695Z,61.53
2018-05-02T07:31:39.784Z,60.54
2018-05-02T07:34:43.106Z,60.12
2018-05-02T07:37:46.306Z,59.96
2018-05-02T07:40:49.576Z,58.38
2018-05-02T07:43:52.855Z,58.26
2018-05-02T07:46:56.157Z,58.42
2018-05-02T07:49:59.465Z,58.19
2018-05-02T07:53:02.640Z,58.67
2018-05-02T07:56:05.910Z,58.75
2018-05-02T07:59:10.001Z,57.74
2018-05-02T08:02:13.155Z,56.87
2018-05-02T08:05:16.397Z,56.97
2018-05-02T08:08:19.666Z,56.54
2018-05-02T08:11:23.010Z,57.18
2018-05-02T08:14:26.241Z,57.52
2018-05-02T08:17:29.554Z,57.00
2018-05-02T08:20:32.720Z,56.55
2018-05-02T08:23:36.033Z,56.24
2018-05-02T08:26:40.187Z,55.63
2018-05-02T08:29:43.380Z,55.14
2018-05-02T08:32:46.714Z,54.46
2018-05-02T08:35:50.977Z,53.62
2018-05-02T08:38:54.362Z,53.86
2018-05-02T08:41:57.680Z,52.88
2018-05-02T08:45:00.832Z,53.23
2018-05-02T08:48:04.139Z,53.82
2018-05-02T08:51:08.404Z,52.96
2018-05-02T08:54:11.700Z,52.22
2018-05-02T08:57:14.907Z,54.17
2018-05-02T09:00:18.159Z,53.24
2018-05-02T09:03:21.452Z,53.61
2018-05-02T09:06:24.758Z,53.68
2018-05-02T09:09:28.202Z,53.17
2018-05-02T09:12:31.404Z,53.06
2018-05-02T09:15:34.687Z,51.75
2018-05-02T09:18:39.623Z,52.98
2018-05-02T09:21:43.905Z,53.52
2018-05-02T09:24:47.195Z,53.06
2018-05-02T09:27:50.500Z,52.44
2018-05-02T09:30:53.748Z,52.95
2018-05-02T09:33:57.007Z,53.08
2018-05-02T09:37:00.288Z,52.01
2018-05-02T09:40:03.655Z,50.71
2018-05-02T09:43:06.953Z,50.40
2018-05-02T09:46:10.108Z,50.56
2018-05-02T09:49:13.381Z,49.71
2018-05-02T09:52:17.767Z,49.20
2018-05-02T09:55:21.436Z,49.55
2018-05-02T09:58:24.737Z,48.92
2018-05-02T10:01:27.964Z,49.11
2018-05-02T10:04:31.249Z,48.98
2018-05-02T10:07:34.453Z,47.84
2018-05-02T10:10:38.335Z,47.91
2018-05-02T10:13:41.753Z,47.69
2018-05-02T10:16:44.966Z,47.93
2018-05-02T10:19:48.143Z,47.68
2018-05-02T10:22:51.419Z,46.78
2018-05-02T10:25:54.661Z,46.79
2018-05-02T10:28:57.992Z,46.49
2018-05-02T10:32:01.863Z,45.85
2018-05-02T10:35:05.094Z,45.60
2018-05-02T10:38:09.034Z,46.28
2018-05-02T10:41:12.314Z,46.46
2018-05-02T10:44:15.486Z,45.41
2018-05-02T10:47:18.811Z,46.19
2018-05-02T10:50:22.115Z,44.77
2018-05-02T10:53:25.415Z,44.52
2018-05-02T10:56:28.709Z,44.92
2018-05-02T10:59:31.998Z,43.59
2018-05-02T11:02:35.311Z,44.12
2018-05-02T11:05:39.399Z,43.27
2018-05-02T11:08:42.700Z,44.06
2018-05-02T11:11:45.959Z,44.19
2018-05-02T11:14:49.294Z,42.96
2018-05-02T11:17:52.597Z,41.89
2018-05-02T11:20:55.815Z,41.94
2018-05-02T11:23:59.122Z,42.66
2018-05-02T11:27:02.338Z,43.14
2018-05-02T11:30:07.383Z,43.25
2018-05-02T11:33:10.603Z,43.07
2018-05-02T11:36:13.907Z,42.71
2018-05-02T11:39:17.205Z,41.79
2018-05-02T11:42:21.527Z,41.68
2018-05-02T11:45:24.825Z,42.53
2018-05-02T11:48:28.118Z,42.40
2018-05-02T11:51:31.487Z,42.52
2018-05-02T11:54:34.715Z,41.53
2018-05-02T11:57:40.006Z,41.82
2018-05-02T12:00:43.275Z,41.51
2018-05-02T12:03:46.444Z,40.92
2018-05-02T12:06:49.752Z,41.21
2018-05-02T12:09:53.044Z,41.68
2018-05-02T12:12:56.259Z,41.10
2018-05-02T12:15:59.532Z,41.11
2018-05-02T12:19:03.859Z,40.73
2018-05-02T12:22:08.127Z,41.25
2018-05-02T12:25:11.263Z,41.79
2018-05-02T12:28:14.584Z,41.45
2018-05-02T12:31:17.871Z,41.12
2018-05-02T12:34:21.163Z,40.69
2018-05-02T12:37:24.479Z,40.83
2018-05-02T12:40:27.786Z,40.59
2018-05-02T12:43:30.959Z,41.16
2018-05-02T12:46:35.292Z,41.21
2018-05-02T12:49:39.595Z,40.77
2018-05-02T12:52:42.809Z,39.38
2018-05-02T12:55:46.037Z,40.01
2018-05-02T12:58:49.279Z,39.25
2018-05-02T13:01:52.573Z,39.22
2018-05-02T13:04:56.028Z,38.89
2018-05-02T13:07:59.244Z,38.65
2018-05-02T13:11:02.464Z,39.34
2018-05-02T13:14:05.665Z,38.94
2018-05-02T13:17:09.695Z,38.60
2018-05-02T13:20:13.008Z,37.70
2018-05-02T13:23:16.192Z,38.30
2018-05-02T13:29:21.629Z,38.47
2018-05-02T13:32:24.958Z,39.05
2018-05-02T13:35:28.116Z,38.50
2018-05-02T13:38:31.319Z,38.04
2018-05-02T13:41:34.523Z,38.90
2018-05-02T13:44:38.260Z,37.83
2018-05-02T13:47:41.528Z,37.90
2018-05-02T13:50:44.854Z,37.12
2018-05-02T13:53:48.000Z,38.69
2018-05-02T13:56:51.343Z,38.10
2018-05-02T13:59:54.627Z,38.22
2018-05-02T14:02:57.920Z,38.30
2018-05-02T14:06:01.197Z,37.75
2018-05-02T14:09:04.641Z,37.79
2018-05-02T14:12:08.630Z,37.50
2018-05-02T14:15:11.940Z,37.82
2018-05-02T14:18:15.248Z,37.36
2018-05-02T14:21:18.605Z,37.52
2018-05-02T14:24:21.930Z,38.32
2018-05-02T14:27:25.215Z,38.28
2018-05-02T14:30:28.452Z,37.99
2018-05-02T14:33:31.720Z,38.14
2018-05-02T14:36:35.022Z,37.96
2018-05-02T14:39:39.200Z,38.00
2018-05-02T14:42:42.449Z,38.01
2018-05-02T14:45:46.068Z,37.35
2018-05-02T14:48:49.306Z,37.57
2018-05-02T14:51:52.564Z,37.03
2018-05-02T14:54:55.806Z,36.42
2018-05-02T14:57:59.015Z,36.61
2018-05-02T15:01:02.324Z,36.51
2018-05-02T15:04:05.551Z,36.11
2018-05-02T15:07:09.098Z,36.84
2018-05-02T15:10:12.423Z,36.73
2018-05-02T15:13:15.702Z,36.59
2018-05-02T15:16:18.923Z,36.80
2018-05-02T15:19:22.148Z,36.84
2018-05-02T15:22:25.400Z,37.44
2018-05-02T15:25:28.721Z,37.66
2018-05-02T15:28:31.979Z,36.95
2018-05-02T15:31:35.313Z,36.77
2018-05-02T15:34:39.386Z,37.03
2018-05-02T15:37:42.691Z,36.92
2018-05-02T15:40:49.395Z,37.58
2018-05-02T15:43:52.663Z,36.68
2018-05-02T15:46:55.899Z,36.15
2018-05-02T15:49:59.124Z,36.83
2018-05-02T15:53:02.244Z,37.45
2018-05-02T15:56:05.586Z,37.98
2018-05-02T15:59:09.971Z,37.66
2018-05-02T16:02:13.195Z,37.58
2018-05-02T16:05:16.464Z,37.37
2018-05-02T16:08:19.757Z,37.22
2018-05-02T16:11:23.124Z,36.91
2018-05-02T16:14:26.283Z,37.73
2018-05-02T16:17:29.548Z,37.68
2018-05-02T16:20:32.822Z,38.20
2018-05-02T16:23:36.053Z,38.08
2018-05-02T16:26:40.619Z,38.00
2018-05-02T16:29:43.781Z,38.63
2018-05-02T16:32:47.016Z,39.02
2018-05-02T16:35:50.255Z,39.46
2018-05-02T16:38:53.450Z,39.84
2018-05-02T16:41:56.744Z,39.37
2018-05-02T16:44:59.966Z,39.68
2018-05-02T16:48:03.148Z,39.54
2018-05-02T16:51:06.432Z,39.53
2018-05-02T16:54:10.390Z,39.34
2018-05-02T16:57:14.600Z,39.43
2018-05-02T17:00:18.443Z,39.94
2018-05-02T17:03:21.747Z,39.65
2018-05-02T17:06:25.003Z,39.32
2018-05-02T17:09:28.240Z,39.78
2018-05-02T17:12:31.453Z,39.52
2018-05-02T17:15:34.768Z,39.69
2018-05-02T17:18:38.056Z,39.83
2018-05-02T17:21:41.287Z,39.77
2018-05-02T17:24:45.647Z,39.97
2018-05-02T17:27:48.879Z,40.24
2018-05-02T17:30:52.168Z,40.49
2018-05-02T17:33:55.407Z,40.33
2018-05-02T17:36:58.671Z,40.31
2018-05-02T17:40:01.974Z,40.33
2018-05-02T17:43:05.183Z,40.94
2018-05-02T17:46:08.542Z,40.76
2018-05-02T17:49:11.859Z,40.86
2018-05-02T17:52:15.141Z,41.03
2018-05-02T17:55:19.455Z,40.91
2018-05-02T17:58:22.976Z,41.74
2018-05-02T18:01:26.384Z,41.46
2018-05-02T18:04:29.612Z,41.35
2018-05-02T18:07:33.141Z,41.59
2018-05-02T18:10:36.471Z,41.62
2018-05-02T18:13:40.017Z,41.58
2018-05-02T18:16:43.239Z,41.56
2018-05-02T18:19:46.536Z,41.72
2018-05-02T18:22:49.807Z,41.56
2018-05-02T18:25:53.063Z,41.58
2018-05-02T18:28:56.442Z,41.37
2018-05-02T18:32:00.185Z,41.08
2018-05-02T18:35:03.599Z,40.81
2018-05-02T18:38:06.887Z,41.06
2018-05-02T18:41:10.194Z,41.68
2018-05-02T18:44:13.580Z,41.67
2018-05-02T18:47:17.162Z,41.33
2018-05-02T18:50:20.435Z,41.22
2018-05-02T18:53:28.801Z,41.53
2018-05-02T18:56:32.024Z,41.30
2018-05-02T18:59:35.379Z,41.76
2018-05-02T19:02:38.673Z,41.87
2018-05-02T19:05:42.046Z,42.56
2018-05-02T19:08:47.574Z,42.47
2018-05-02T19:11:50.932Z,43.02
2018-05-02T19:14:54.207Z,43.34
2018-05-02T19:18:01.809Z,43.46
2018-05-02T19:21:05.149Z,44.04
2018-05-02T19:24:08.401Z,44.54
2018-05-02T19:27:11.579Z,44.87
2018-05-02T19:30:14.810Z,44.79
2018-05-02T19:34:21.580Z,44.67
2018-05-02T19:37:24.897Z,45.06
2018-05-02T19:40:32.260Z,44.82
2018-05-02T19:44:09.551Z,44.92
2018-05-02T19:47:13.054Z,45.72
2018-05-02T19:50:16.965Z,45.85
2018-05-02T19:53:20.884Z,45.37
2018-05-02T19:56:25.030Z,45.61
2018-05-02T19:59:28.934Z,45.71
2018-05-02T20:03:02.997Z,45.40
2018-05-02T20:06:06.982Z,45.33
2018-05-02T20:10:13.633Z,45.56
2018-05-02T20:14:24.115Z,45.18
2018-05-02T20:17:27.604Z,43.58
2018-05-02T20:20:31.309Z,44.13
2018-05-02T20:23:35.119Z,44.50
2018-05-02T20:26:38.732Z,45.32
2018-05-02T20:29:42.219Z,45.75
2018-05-02T20:32:46.133Z,46.08
2018-05-02T20:35:49.709Z,46.14
2018-05-02T20:38:53.301Z,46.04
2018-05-02T20:41:57.330Z,45.84
2018-05-02T20:45:01.205Z,46.44
2018-05-02T20:48:06.200Z,46.86
2018-05-02T20:51:12.220Z,46.58
2018-05-02T20:54:15.577Z,47.32
2018-05-02T20:57:18.904Z,47.41
2018-05-02T21:00:22.209Z,48.17
2018-05-02T21:03:25.589Z,48.79
2018-05-02T21:06:29.912Z,48.91
2018-05-02T21:09:33.289Z,48.87
2018-05-02T21:12:36.609Z,48.50
2018-05-02T21:15:40.053Z,48.59
2018-05-02T21:18:43.421Z,49.11
2018-05-02T21:21:46.852Z,48.94
2018-05-02T21:24:50.111Z,48.53
2018-05-02T21:27:53.499Z,48.74
2018-05-02T21:30:57.441Z,48.57
2018-05-02T21:34:00.840Z,48.88
2018-05-02T21:37:04.164Z,49.11
2018-05-02T21:40:07.547Z,49.08
2018-05-02T21:43:10.944Z,49.31
2018-05-02T21:46:14.298Z,49.25
2018-05-02T21:49:17.569Z,49.63
2018-05-02T21:52:21.190Z,49.41
2018-05-02T21:55:24.528Z,49.37
2018-05-02T21:58:28.199Z,49.54
2018-05-02T22:01:31.531Z,49.96
2018-05-02T22:04:34.962Z,49.53
2018-05-02T22:07:38.228Z,49.44
2018-05-02T22:10:41.674Z,49.53
2018-05-02T22:13:45.012Z,50.20
2018-05-02T22:16:48.289Z,51.52
2018-05-02T22:19:51.687Z,51.52
2018-05-02T22:22:55.060Z,51.16
2018-05-02T22:25:59.052Z,52.14
2018-05-02T22:29:23.191Z,52.53
2018-05-02T22:32:26.560Z,51.95
2018-05-02T22:35:30.599Z,52.91
2018-05-02T22:38:33.921Z,53.04
2018-05-02T22:41:37.241Z,53.22
2018-05-02T22:44:40.522Z,52.86
2018-05-02T22:47:43.961Z,53.19
2018-05-02T22:50:47.343Z,53.80
2018-05-02T22:53:50.546Z,54.52
2018-05-02T22:56:53.900Z,55.76
2018-05-02T22:59:57.210Z,56.43
2018-05-02T23:03:00.640Z,56.28
2018-05-02T23:06:04.066Z,56.48
2018-05-02T23:09:07.440Z,56.67
2018-05-02T23:12:10.807Z,56.21
2018-05-02T23:15:14.212Z,56.46
2018-05-02T23:18:17.623Z,56.79
2018-05-02T23:21:20.918Z,57.36
2018-05-02T23:24:24.190Z,57.70
2018-05-02T23:27:27.626Z,57.27
2018-05-02T23:30:32.001Z,57.46
2018-05-02T23:33:35.345Z,57.85
2018-05-02T23:36:38.831Z,57.99
2018-05-02T23:39:42.068Z,58.17
2018-05-02T23:42:45.423Z,56.82
2018-05-02T23:45:48.743Z,57.16
2018-05-02T23:48:53.005Z,58.35
2018-05-02T23:51:56.367Z,58.06
2018-05-02T23:54:59.740Z,57.51
2018-05-02T23:58:03.047Z,57.47
